createdAt,value
2019-02-27T00:00:11.429Z,99967.36
2019-02-27T00:02:38.743Z,99972.11
2019-02-27T00:05:08.375Z,99964.72
2019-02-27T00:07:34.651Z,99968.02
2019-02-27T00:19:31.130Z,99961.16
2019-02-27T00:21:56.350Z,99951.53
2019-02-27T00:24:22.876Z,99954.98
2019-02-27T00:26:49.470Z,99961.55
2019-02-27T00:29:16.195Z,99954.66
2019-02-27T00:31:45.203Z,99956.91
2019-02-27T00:34:12.116Z,99957.16
2019-02-27T00:36:38.588Z,99961.06
2019-02-27T00:39:05.273Z,99955.62
2019-02-27T00:41:31.777Z,99951.33
2019-02-27T00:44:01.044Z,99951.58
2019-02-27T00:46:27.347Z,99953.13
2019-02-27T00:48:53.958Z,99960.30
2019-02-27T00:51:20.442Z,99952.42
2019-02-27T00:53:46.995Z,99953.02
2019-02-27T00:56:13.496Z,99959.84
2019-02-27T00:58:39.969Z,99957.02
2019-02-27T01:01:06.786Z,99954.28
2019-02-27T01:03:35.455Z,99951.56
2019-02-27T01:06:02.368Z,99960.17
2019-02-27T01:08:29.243Z,99955.78
2019-02-27T01:10:55.914Z,99948.33
2019-02-27T01:13:39.869Z,99947.91
2019-02-27T01:16:06.497Z,99945.88
2019-02-27T01:18:32.955Z,99945.49
2019-02-27T01:20:59.851Z,99942.78
2019-02-27T01:23:26.806Z,99946.00
2019-02-27T01:25:57.145Z,99932.00
2019-02-27T01:28:23.753Z,99928.60
2019-02-27T01:30:50.263Z,99928.78
2019-02-27T01:33:18.863Z,99940.19
2019-02-27T01:35:45.656Z,99931.12
2019-02-27T01:38:12.150Z,99930.13
2019-02-27T01:40:38.675Z,99928.72
2019-02-27T01:43:06.277Z,99922.68
2019-02-27T01:45:32.998Z,99911.98
2019-02-27T01:47:59.533Z,99911.75
2019-02-27T01:50:36.420Z,99910.37
2019-02-27T01:53:07.026Z,99901.24
2019-02-27T01:55:32.619Z,99897.83
2019-02-27T01:57:59.124Z,99901.66
2019-02-27T02:00:25.965Z,99894.31
2019-02-27T02:03:00.000Z,99890.41
2019-02-27T02:05:27.453Z,99899.78
2019-02-27T02:07:54.193Z,99891.11
2019-02-27T02:10:20.859Z,99882.22
2019-02-27T02:12:53.539Z,99882.14
2019-02-27T02:16:05.056Z,99886.35
2019-02-27T02:19:09.485Z,99879.31
2019-02-27T02:22:11.222Z,99879.17
2019-02-27T02:24:54.833Z,99879.84
2019-02-27T02:27:52.377Z,99870.33
2019-02-27T02:31:05.382Z,99874.08
2019-02-27T02:33:46.368Z,99871.94
2019-02-27T02:36:47.987Z,99863.37
2019-02-27T02:39:44.568Z,99853.66
2019-02-27T02:42:25.493Z,99853.70
2019-02-27T02:45:14.982Z,99847.94
2019-02-27T02:48:31.245Z,99847.30
2019-02-27T02:51:37.148Z,99848.11
2019-02-27T02:54:52.605Z,99848.27
2019-02-27T02:57:52.099Z,99845.06
2019-02-27T03:00:59.100Z,99847.92
2019-02-27T03:03:58.064Z,99844.73
2019-02-27T03:06:59.563Z,99838.06
2019-02-27T03:10:08.131Z,99844.23
2019-02-27T03:13:08.144Z,99844.59
2019-02-27T03:16:05.963Z,99845.59
2019-02-27T03:18:55.433Z,99838.31
2019-02-27T03:21:49.823Z,99840.47
2019-02-27T03:25:16.698Z,99835.02
2019-02-27T03:28:17.514Z,99834.78
2019-02-27T03:31:21.439Z,99830.39
2019-02-27T03:34:22.725Z,99828.67
2019-02-27T03:37:35.719Z,99828.14
2019-02-27T03:40:20.937Z,99834.06
2019-02-27T03:43:35.435Z,99829.36
2019-02-27T03:46:43.668Z,99827.67
2019-02-27T03:50:07.148Z,99830.75
2019-02-27T03:52:58.991Z,99829.98
2019-02-27T03:55:54.401Z,99832.91
2019-02-27T03:59:06.079Z,99829.11
2019-02-27T04:02:05.854Z,99827.22
2019-02-27T04:05:25.374Z,99818.14
2019-02-27T04:08:30.062Z,99825.13
2019-02-27T04:10:56.538Z,99812.54
2019-02-27T04:13:26.824Z,99814.42
2019-02-27T04:15:53.772Z,99819.23
2019-02-27T04:18:27.513Z,99821.36
2019-02-27T04:20:50.975Z,99820.31
2019-02-27T04:23:17.908Z,99819.48
2019-02-27T04:25:44.441Z,99820.41
2019-02-27T04:28:14.850Z,99831.28
2019-02-27T04:30:41.336Z,99827.09
2019-02-27T04:33:08.230Z,99823.52
2019-02-27T04:35:39.269Z,99831.77
2019-02-27T04:38:03.471Z,99835.08
2019-02-27T04:40:30.982Z,99841.23
2019-02-27T04:42:59.296Z,99834.30
2019-02-27T04:45:26.157Z,99829.11
2019-02-27T04:47:52.666Z,99821.30
2019-02-27T04:50:19.208Z,99817.73
2019-02-27T04:52:46.736Z,99813.02
2019-02-27T04:55:15.675Z,99809.01
2019-02-27T04:57:41.790Z,99805.03
2019-02-27T05:00:08.437Z,99805.59
2019-02-27T05:02:35.033Z,99801.72
2019-02-27T05:05:01.608Z,99799.69
2019-02-27T05:07:28.141Z,99788.39
2019-02-27T05:09:54.648Z,99785.70
2019-02-27T05:12:21.164Z,99786.54
2019-02-27T05:14:47.700Z,99782.20
2019-02-27T05:17:14.665Z,99779.02
2019-02-27T05:19:41.434Z,99769.58
2019-02-27T05:22:07.944Z,99772.05
2019-02-27T05:24:34.537Z,99773.34
2019-02-27T05:27:01.737Z,99766.93
2019-02-27T05:29:31.337Z,99763.02
2019-02-27T05:31:57.907Z,99765.02
2019-02-27T05:34:24.417Z,99766.66
2019-02-27T05:36:50.872Z,99770.67
2019-02-27T05:39:18.014Z,99767.66
2019-02-27T05:41:44.972Z,99766.28
2019-02-27T05:44:11.820Z,99770.34
2019-02-27T05:46:39.239Z,99773.61
2019-02-27T05:49:06.203Z,99783.91
2019-02-27T05:51:32.798Z,99782.86
2019-02-27T05:53:59.399Z,99783.28
2019-02-27T05:56:26.000Z,99779.80
2019-02-27T05:58:55.850Z,99783.80
2019-02-27T06:01:22.406Z,99783.18
2019-02-27T06:03:49.461Z,99781.05
2019-02-27T06:06:17.457Z,99776.84
2019-02-27T06:08:44.102Z,99773.53
2019-02-27T06:11:10.723Z,99772.73
2019-02-27T06:13:37.527Z,99776.24
2019-02-27T06:16:08.339Z,99770.14
2019-02-27T06:18:32.560Z,99779.66
2019-02-27T06:20:59.473Z,99773.53
2019-02-27T06:23:28.312Z,99781.84
2019-02-27T06:25:59.075Z,99771.87
2019-02-27T06:28:23.812Z,99773.75
2019-02-27T06:30:50.741Z,99778.86
2019-02-27T06:33:17.443Z,99777.94
2019-02-27T06:35:43.992Z,99776.27
2019-02-27T06:38:10.495Z,99773.59
2019-02-27T06:40:37.031Z,99768.78
2019-02-27T06:43:03.579Z,99765.35
2019-02-27T06:45:30.611Z,99756.87
2019-02-27T06:47:57.143Z,99756.87
2019-02-27T06:50:25.519Z,99756.32
2019-02-27T06:52:52.682Z,99750.58
2019-02-27T06:55:19.525Z,99750.78
2019-02-27T06:57:46.264Z,99748.00
2019-02-27T07:00:15.331Z,99745.41
2019-02-27T07:02:42.309Z,99756.63
2019-02-27T07:05:13.259Z,99748.45
2019-02-27T07:07:38.064Z,99747.16
2019-02-27T07:10:05.102Z,99746.52
2019-02-27T07:12:31.599Z,99742.56
2019-02-27T07:14:58.131Z,99746.47
2019-02-27T07:17:24.709Z,99737.59
2019-02-27T07:19:52.257Z,99729.44
2019-02-27T07:22:18.834Z,99735.84
2019-02-27T07:24:45.347Z,99740.13
2019-02-27T07:27:11.832Z,99741.79
2019-02-27T07:29:38.467Z,99743.55
2019-02-27T07:32:05.426Z,99741.44
2019-02-27T07:34:32.084Z,99745.10
2019-02-27T07:36:58.647Z,99750.22
2019-02-27T07:39:25.396Z,99743.30
2019-02-27T07:41:51.971Z,99738.20
2019-02-27T07:44:18.615Z,99744.51
2019-02-27T07:46:45.515Z,99729.97
2019-02-27T07:49:12.105Z,99723.27
2019-02-27T07:51:39.084Z,99727.02
2019-02-27T07:54:05.906Z,99725.04
2019-02-27T07:56:32.718Z,99723.50
2019-02-27T07:58:59.915Z,99716.23
2019-02-27T08:01:32.065Z,99717.97
2019-02-27T08:04:05.299Z,99715.30
2019-02-27T08:06:31.898Z,99705.17
2019-02-27T08:08:58.536Z,99701.10
2019-02-27T08:11:26.553Z,99699.04
2019-02-27T08:13:53.353Z,99696.45
2019-02-27T08:16:20.106Z,99687.63
2019-02-27T08:18:46.765Z,99691.45
2019-02-27T08:21:13.454Z,99691.26
2019-02-27T08:23:42.599Z,99683.39
2019-02-27T08:26:11.358Z,99691.17
2019-02-27T08:28:38.231Z,99682.12
2019-02-27T08:31:05.190Z,99684.55
2019-02-27T08:33:31.970Z,99672.83
2019-02-27T08:35:58.456Z,99680.51
2019-02-27T08:38:25.685Z,99676.38
2019-02-27T08:40:57.209Z,99681.59
2019-02-27T08:43:21.297Z,99678.77
2019-02-27T08:45:47.913Z,99671.44
2019-02-27T08:48:17.525Z,99668.59
2019-02-27T08:50:43.681Z,99667.42
2019-02-27T08:53:14.155Z,99659.52
2019-02-27T08:55:41.405Z,99657.11
2019-02-27T08:58:08.137Z,99650.13
2019-02-27T09:00:47.439Z,99649.27
2019-02-27T09:03:22.787Z,99653.06
2019-02-27T09:05:51.026Z,99657.06
2019-02-27T09:08:18.471Z,99653.33
2019-02-27T09:10:45.664Z,99636.20
2019-02-27T09:13:12.398Z,99640.58
2019-02-27T09:15:41.564Z,99639.03
2019-02-27T09:18:10.036Z,99636.26
2019-02-27T09:20:36.645Z,99638.94
2019-02-27T09:23:04.570Z,99632.84
2019-02-27T09:25:31.228Z,99636.08
2019-02-27T09:27:57.931Z,99626.82
2019-02-27T09:30:28.805Z,99626.04
2019-02-27T09:32:53.812Z,99615.99
2019-02-27T09:35:20.750Z,99623.34
2019-02-27T09:37:51.429Z,99618.14
2019-02-27T09:40:17.689Z,99606.44
2019-02-27T09:42:44.230Z,99607.52
2019-02-27T09:45:25.206Z,99605.48
2019-02-27T09:47:51.878Z,99601.19
2019-02-27T09:50:32.660Z,99599.56
2019-02-27T09:53:01.145Z,99592.24
2019-02-27T09:55:28.251Z,99592.86
2019-02-27T09:57:54.904Z,99588.58
2019-02-27T10:00:35.283Z,99585.62
2019-02-27T10:03:01.920Z,99585.62
2019-02-27T10:05:28.703Z,99580.41
2019-02-27T10:07:57.488Z,99580.41
2019-02-27T10:10:24.413Z,99574.36
2019-02-27T10:12:51.066Z,99564.94
2019-02-27T10:15:17.547Z,99565.58
2019-02-27T10:17:44.274Z,99659.22
2019-02-27T10:20:11.414Z,99568.98
2019-02-27T10:22:38.069Z,99570.83
2019-02-27T10:25:04.713Z,99574.12
2019-02-27T10:27:31.279Z,99574.12
2019-02-27T10:29:57.832Z,99571.93
2019-02-27T10:32:24.432Z,99565.25
2019-02-27T10:34:53.517Z,99571.16
2019-02-27T10:37:20.248Z,99570.09
2019-02-27T10:39:47.482Z,99559.73
2019-02-27T10:42:14.219Z,99559.73
2019-02-27T10:44:41.093Z,99566.50
2019-02-27T10:47:08.730Z,99549.04
2019-02-27T10:49:35.703Z,99542.12
2019-02-27T10:52:06.278Z,99542.12
2019-02-27T10:54:33.395Z,99542.02
2019-02-27T10:57:00.028Z,99536.58
2019-02-27T10:59:26.769Z,99544.17
2019-02-27T11:01:53.386Z,99533.72
2019-02-27T11:04:20.715Z,99523.45
2019-02-27T11:06:56.604Z,99519.38
2019-02-27T11:09:25.711Z,99516.18
2019-02-27T11:11:53.901Z,99511.80
2019-02-27T11:14:21.695Z,99515.99
2019-02-27T11:16:48.184Z,99512.85
2019-02-27T11:19:16.620Z,99513.47
2019-02-27T11:21:45.209Z,99506.37
2019-02-27T11:24:14.475Z,99510.45
2019-02-27T11:26:40.954Z,99507.69
2019-02-27T11:29:07.675Z,99502.50
2019-02-27T11:31:36.968Z,99499.88
2019-02-27T11:34:12.423Z,99497.56
2019-02-27T11:36:39.667Z,99496.86
2019-02-27T11:39:08.313Z,99497.87
2019-02-27T11:41:34.924Z,99494.59
2019-02-27T11:44:02.919Z,99484.95
2019-02-27T11:46:29.561Z,99481.83
2019-02-27T11:48:57.053Z,99476.38
2019-02-27T11:51:29.636Z,99472.81
2019-02-27T11:53:56.101Z,99471.10
2019-02-27T11:56:22.636Z,99469.21
2019-02-27T11:58:49.285Z,99461.84
2019-02-27T12:01:16.166Z,99460.39
2019-02-27T12:03:45.747Z,99453.84
2019-02-27T12:06:12.188Z,99457.56
2019-02-27T12:08:39.038Z,99442.83
2019-02-27T12:11:05.554Z,99441.19
2019-02-27T12:13:32.364Z,99437.12
2019-02-27T12:16:00.667Z,99437.53
2019-02-27T12:18:27.345Z,99430.56
2019-02-27T12:20:54.146Z,99424.53
2019-02-27T12:23:21.888Z,99426.38
2019-02-27T12:25:48.620Z,99414.92
2019-02-27T12:28:18.124Z,99412.30
2019-02-27T12:30:44.076Z,99420.11
2019-02-27T12:33:10.750Z,99402.86
2019-02-27T12:35:37.280Z,99397.02
2019-02-27T12:38:08.075Z,99386.71
2019-02-27T12:40:33.513Z,99383.34
2019-02-27T12:43:00.421Z,99371.77
2019-02-27T12:45:29.574Z,99368.49
2019-02-27T12:47:55.697Z,99368.45
2019-02-27T12:50:22.441Z,99367.15
2019-02-27T12:52:49.361Z,99360.94
2019-02-27T12:55:16.770Z,99358.89
2019-02-27T12:57:43.393Z,99352.20
2019-02-27T13:00:12.467Z,99353.98
2019-02-27T13:02:39.145Z,99360.41
2019-02-27T13:05:07.326Z,99347.29
2019-02-27T13:07:33.884Z,99337.73
2019-02-27T13:10:00.702Z,99334.99
2019-02-27T13:12:27.296Z,99338.90
2019-02-27T13:14:54.019Z,99325.10
2019-02-27T13:17:21.475Z,99324.33
2019-02-27T13:19:48.790Z,99303.30
2019-02-27T13:22:15.320Z,99306.45
2019-02-27T13:24:42.113Z,99298.54
2019-02-27T13:27:09.837Z,99286.15
2019-02-27T13:29:36.491Z,99283.50
2019-02-27T13:32:03.377Z,99281.72
2019-02-27T13:34:29.913Z,99285.88
2019-02-27T13:36:56.367Z,99278.14
2019-02-27T13:39:25.587Z,99279.49
2019-02-27T13:41:51.684Z,99272.73
2019-02-27T13:44:18.222Z,99272.35
2019-02-27T13:46:44.712Z,99270.55
2019-02-27T13:49:14.055Z,99264.83
2019-02-27T13:51:41.222Z,99253.90
2019-02-27T13:54:08.204Z,99258.09
2019-02-27T13:56:34.832Z,99247.39
2019-02-27T13:59:01.341Z,99240.91
2019-02-27T14:01:28.519Z,99235.38
2019-02-27T14:03:55.856Z,99233.05
2019-02-27T14:06:22.605Z,99221.19
2019-02-27T14:08:49.186Z,99216.48
2019-02-27T14:11:16.596Z,99216.80
2019-02-27T14:13:44.820Z,99214.80
2019-02-27T14:16:17.486Z,99202.50
2019-02-27T14:18:44.437Z,99198.69
2019-02-27T14:21:11.022Z,99198.69
2019-02-27T14:23:37.572Z,99196.97
2019-02-27T14:26:06.709Z,99204.41
2019-02-27T14:28:32.605Z,99201.63
2019-02-27T14:30:59.313Z,99201.82
2019-02-27T14:33:26.329Z,99192.31
2019-02-27T14:35:52.885Z,99190.60
2019-02-27T14:38:21.901Z,99190.08
2019-02-27T14:40:48.489Z,99183.94
2019-02-27T14:43:15.215Z,99185.41
2019-02-27T14:45:41.918Z,99188.72
2019-02-27T14:48:08.775Z,99177.36
2019-02-27T14:50:35.432Z,99176.03
2019-02-27T14:53:02.616Z,99177.44
2019-02-27T14:55:29.351Z,99170.25
2019-02-27T14:57:56.117Z,99167.83
2019-02-27T15:00:24.795Z,99156.33
2019-02-27T15:02:52.242Z,99158.38
2019-02-27T15:05:18.746Z,99153.25
2019-02-27T15:07:45.398Z,99149.52
2019-02-27T15:10:12.907Z,99141.22
2019-02-27T15:12:39.461Z,99145.59
2019-02-27T15:15:09.493Z,99132.86
2019-02-27T15:17:36.813Z,99131.45
2019-02-27T15:20:05.799Z,99127.54
2019-02-27T15:22:32.615Z,99121.50
2019-02-27T15:24:59.392Z,99112.38
2019-02-27T15:27:25.954Z,99119.21
2019-02-27T15:29:52.480Z,99119.98
2019-02-27T15:32:18.954Z,99114.33
2019-02-27T15:34:45.932Z,99109.67
2019-02-27T15:37:13.659Z,99099.35
2019-02-27T15:39:40.605Z,99099.95
2019-02-27T15:42:09.531Z,99090.95
2019-02-27T15:44:36.057Z,99095.98
2019-02-27T15:47:02.821Z,99093.37
2019-02-27T15:49:30.510Z,99087.08
2019-02-27T15:51:58.554Z,99091.49
2019-02-27T15:54:25.433Z,99085.14
2019-02-27T15:56:52.183Z,99079.63
2019-02-27T15:59:18.850Z,99078.16
2019-02-27T16:01:45.608Z,99068.23
2019-02-27T16:04:12.244Z,99071.09
2019-02-27T16:06:39.723Z,99069.38
2019-02-27T16:09:08.443Z,99072.43
2019-02-27T16:11:35.545Z,99074.61
2019-02-27T16:14:02.514Z,99074.00
2019-02-27T16:16:29.646Z,99077.53
2019-02-27T16:18:56.176Z,99075.05
2019-02-27T16:21:23.718Z,99071.10
2019-02-27T16:23:51.166Z,99069.72
2019-02-27T16:26:17.671Z,99067.08
2019-02-27T16:28:46.160Z,99065.72
2019-02-27T16:31:12.675Z,99068.84
2019-02-27T16:33:39.184Z,99073.71
2019-02-27T16:36:06.130Z,99072.52
2019-02-27T16:38:32.652Z,99073.53
2019-02-27T16:40:59.546Z,99072.77
2019-02-27T16:43:26.180Z,99069.88
2019-02-27T16:45:53.094Z,99073.95
2019-02-27T16:48:19.686Z,99067.52
2019-02-27T16:50:48.152Z,99072.36
2019-02-27T16:53:18.434Z,99074.86
2019-02-27T16:55:43.207Z,99072.13
2019-02-27T16:58:09.792Z,99068.98
2019-02-27T17:00:38.414Z,99070.64
2019-02-27T17:03:05.056Z,99069.58
2019-02-27T17:05:31.946Z,99061.55
2019-02-27T17:08:02.229Z,99060.95
2019-02-27T17:10:29.403Z,99058.91
2019-02-27T17:12:56.382Z,99060.19
2019-02-27T17:15:23.108Z,99057.10
2019-02-27T17:17:50.609Z,99055.30
2019-02-27T17:20:18.141Z,99045.78
2019-02-27T17:22:49.087Z,99051.36
2019-02-27T17:25:15.565Z,99057.14
2019-02-27T17:27:42.222Z,99046.84
2019-02-27T17:30:14.817Z,99046.98
2019-02-27T17:32:41.337Z,99044.66
2019-02-27T17:35:08.058Z,99041.08
2019-02-27T17:37:37.386Z,99044.84
2019-02-27T17:40:03.665Z,99047.94
2019-02-27T17:42:30.076Z,99047.55
2019-02-27T17:44:56.897Z,99041.75
2019-02-27T17:47:28.592Z,99029.42
2019-02-27T17:49:51.912Z,99034.12
2019-02-27T17:52:19.278Z,99026.33
2019-02-27T17:54:45.759Z,99030.45
2019-02-27T17:57:12.275Z,99023.98
2019-02-27T17:59:42.190Z,99017.98
2019-02-27T18:02:07.879Z,99012.98
2019-02-27T18:04:34.857Z,99013.91
2019-02-27T18:07:01.373Z,99003.39
2019-02-27T18:09:36.932Z,99004.83
2019-02-27T18:12:03.517Z,99000.26
2019-02-27T18:14:47.955Z,98995.24
2019-02-27T18:17:14.795Z,98994.37
2019-02-27T18:19:41.257Z,98997.92
2019-02-27T18:22:07.780Z,98986.59
2019-02-27T18:24:34.448Z,98990.33
2019-02-27T18:27:00.932Z,98984.68
2019-02-27T18:29:27.432Z,98982.98
2019-02-27T18:31:53.943Z,98981.38
2019-02-27T18:34:21.658Z,98969.22
2019-02-27T18:36:51.242Z,98967.09
2019-02-27T18:39:17.923Z,98968.91
2019-02-27T18:41:45.736Z,98957.09
2019-02-27T18:44:12.887Z,98952.72
2019-02-27T18:46:41.161Z,98941.70
2019-02-27T18:49:07.633Z,98941.57
2019-02-27T18:51:34.128Z,98933.27
2019-02-27T18:54:02.256Z,98931.83
2019-02-27T18:56:28.826Z,98928.34
2019-02-27T18:58:56.334Z,98918.34
2019-02-27T19:01:22.956Z,98918.00
2019-02-27T19:03:49.484Z,98914.70
2019-02-27T19:06:17.969Z,98916.06
2019-02-27T19:08:49.020Z,98907.82
2019-02-27T19:11:16.680Z,98903.54
2019-02-27T19:13:43.494Z,98902.58
2019-02-27T19:16:10.007Z,98894.65
2019-02-27T19:18:38.507Z,98892.30
2019-02-27T19:21:06.246Z,98882.98
2019-02-27T19:23:33.202Z,98887.52
2019-02-27T19:26:09.276Z,98886.73
2019-02-27T19:28:36.348Z,98877.71
2019-02-27T19:31:16.652Z,98879.42
2019-02-27T19:33:42.521Z,98873.28
2019-02-27T19:36:18.658Z,98873.28
2019-02-27T19:38:38.324Z,98871.95
2019-02-27T19:41:05.200Z,98869.03
2019-02-27T19:43:32.016Z,98866.66
2019-02-27T19:45:58.674Z,98860.38
2019-02-27T19:48:26.307Z,98862.08
2019-02-27T19:50:53.834Z,98854.80
2019-02-27T19:53:20.449Z,98854.90
2019-02-27T19:55:47.052Z,98849.09
2019-02-27T19:58:17.007Z,98841.77
2019-02-27T20:00:48.349Z,98834.98
2019-02-27T20:03:11.140Z,98834.47
2019-02-27T20:05:38.214Z,98819.75
2019-02-27T20:08:10.799Z,98825.23
2019-02-27T20:10:37.844Z,98816.41
2019-02-27T20:13:04.455Z,98812.57
2019-02-27T20:15:33.220Z,98814.34
2019-02-27T20:17:59.724Z,98813.59
2019-02-27T20:20:26.596Z,98806.64
2019-02-27T20:22:54.717Z,98803.63
2019-02-27T20:25:21.796Z,98798.30
2019-02-27T20:27:49.358Z,98798.83
2019-02-27T20:30:16.638Z,98793.71
2019-02-27T20:32:43.330Z,98790.89
2019-02-27T20:35:10.074Z,98791.52
2019-02-27T20:37:37.171Z,98778.21
2019-02-27T20:40:05.831Z,98785.27
2019-02-27T20:42:32.755Z,98769.53
2019-02-27T20:44:59.571Z,98771.41
2019-02-27T20:47:26.336Z,98771.19
2019-02-27T20:49:52.963Z,98766.41
2019-02-27T20:52:20.317Z,98763.02
2019-02-27T20:54:46.891Z,98756.55
2019-02-27T20:57:13.721Z,98752.61
2019-02-27T20:59:40.540Z,98749.98
2019-02-27T21:02:07.210Z,98750.19
2019-02-27T21:04:35.293Z,98752.45
2019-02-27T21:07:03.779Z,98752.88
2019-02-27T21:09:30.586Z,98760.33
2019-02-27T21:11:57.123Z,98752.13
2019-02-27T21:14:24.249Z,98754.05
2019-02-27T21:16:50.829Z,98757.80
2019-02-27T21:19:17.572Z,98749.23
2019-02-27T21:21:45.187Z,98752.05
2019-02-27T21:24:11.855Z,98746.80
2019-02-27T21:26:41.590Z,98747.81
2019-02-27T21:29:08.640Z,98749.63
2019-02-27T21:31:36.223Z,98740.14
2019-02-27T21:34:03.802Z,98734.11
2019-02-27T21:36:30.653Z,98727.08
2019-02-27T21:38:57.136Z,98729.81
2019-02-27T21:41:27.333Z,98732.12
2019-02-27T21:43:56.632Z,98726.02
2019-02-27T21:46:23.691Z,98727.23
2019-02-27T21:48:50.813Z,98726.30
2019-02-27T21:51:17.429Z,98720.16
2019-02-27T21:53:44.218Z,98710.53
2019-02-27T21:56:10.665Z,98714.07
2019-02-27T21:58:38.287Z,98714.08
2019-02-27T22:01:04.890Z,98704.92
2019-02-27T22:03:31.544Z,98708.94
2019-02-27T22:05:58.203Z,98704.38
2019-02-27T22:08:25.240Z,98695.73
2019-02-27T22:10:53.539Z,98688.31
2019-02-27T22:13:28.889Z,98684.56
2019-02-27T22:15:49.552Z,98679.94
2019-02-27T22:18:16.353Z,98680.57
2019-02-27T22:20:42.839Z,98677.72
2019-02-27T22:23:12.662Z,98677.86
2019-02-27T22:25:37.769Z,98668.86
2019-02-27T22:28:04.293Z,98669.78
2019-02-27T22:30:31.777Z,98664.05
2019-02-27T22:32:59.124Z,98654.63
2019-02-27T22:35:25.958Z,98649.05
2019-02-27T22:37:52.933Z,98644.48
2019-02-27T22:40:19.904Z,98626.30
2019-02-27T22:42:48.426Z,98624.93
2019-02-27T22:45:16.046Z,98614.44
2019-02-27T22:47:42.622Z,98612.59
2019-02-27T22:50:10.750Z,98610.88
2019-02-27T22:52:37.327Z,98608.56
2019-02-27T22:55:07.276Z,98620.97
2019-02-27T22:57:34.690Z,98620.45
2019-02-27T23:00:01.566Z,98613.61
2019-02-27T23:02:30.229Z,98613.69
2019-02-27T23:04:56.666Z,98614.59
2019-02-27T23:07:23.155Z,98611.13
2019-02-27T23:09:49.954Z,98604.35
2019-02-27T23:12:16.921Z,98603.34
2019-02-27T23:14:43.425Z,98605.55
2019-02-27T23:17:10.135Z,98603.47
2019-02-27T23:19:36.646Z,98602.58
2019-02-27T23:22:03.240Z,98607.02
2019-02-27T23:24:29.750Z,98600.44
2019-02-27T23:26:56.263Z,98597.45
2019-02-27T23:29:23.353Z,98589.41
2019-02-27T23:31:49.889Z,98589.59
2019-02-27T23:34:16.365Z,98578.66
2019-02-27T23:36:48.040Z,98576.13
2019-02-27T23:39:14.858Z,98569.48
2019-02-27T23:41:41.373Z,98570.80
2019-02-27T23:44:07.998Z,98562.84
2019-02-27T23:46:34.454Z,98559.69
2019-02-27T23:49:01.156Z,98553.87
2019-02-27T23:51:27.660Z,98551.05
2019-02-27T23:53:54.487Z,98546.19
2019-02-27T23:56:21.011Z,98539.19
2019-02-27T23:58:47.642Z,98541.39
